createdAt,value
2022-10-12T00:00:40.815Z,100194.06
2022-10-12T00:03:07.402Z,100191.88
2022-10-12T00:05:33.961Z,100191.06
2022-10-12T00:08:00.553Z,100192.38
2022-10-12T00:10:27.109Z,100189.16
2022-10-12T00:12:53.661Z,100187.53
2022-10-12T00:15:20.235Z,100197.22
2022-10-12T00:17:46.772Z,100197.75
2022-10-12T00:20:13.407Z,100199.09
2022-10-12T00:22:39.957Z,100204.75
2022-10-12T00:25:06.958Z,100205.28
2022-10-12T00:27:33.660Z,100193.66
2022-10-12T00:30:00.193Z,100207.38
2022-10-12T00:32:26.732Z,100205.22
2022-10-12T00:34:53.529Z,100194.72
2022-10-12T00:37:21.236Z,100201.44
2022-10-12T00:39:48.999Z,100201.72
2022-10-12T00:42:15.640Z,100204.91
2022-10-12T00:44:44.663Z,100207.31
2022-10-12T00:47:25.956Z,100209.72
2022-10-12T00:50:02.769Z,100211.03
2022-10-12T00:52:49.704Z,100207.00
2022-10-12T00:55:19.582Z,100215.31
2022-10-12T00:57:48.479Z,100201.31
2022-10-12T01:00:16.328Z,100201.31
2022-10-12T01:02:43.871Z,100209.13
2022-10-12T01:05:12.466Z,100211.50
2022-10-12T01:07:39.614Z,100202.88
2022-10-12T01:10:06.728Z,100201.28
2022-10-12T01:12:34.693Z,100209.03
2022-10-12T01:15:01.545Z,100201.50
2022-10-12T01:17:51.217Z,100200.13
2022-10-12T01:20:53.327Z,100198.47
2022-10-12T01:23:38.561Z,100203.59
2022-10-12T01:26:23.493Z,100196.06
2022-10-12T01:29:19.194Z,100200.63
2022-10-12T01:32:02.098Z,100195.25
2022-10-12T01:34:31.626Z,100194.97
2022-10-12T01:37:11.584Z,100198.16
2022-10-12T01:39:44.723Z,100192.78
2022-10-12T01:42:20.064Z,100186.06
2022-10-12T01:44:46.609Z,100183.34
2022-10-12T01:47:13.120Z,100178.22
2022-10-12T01:49:39.880Z,100173.63
2022-10-12T01:52:21.895Z,100174.94
2022-10-12T01:55:15.759Z,100164.19
2022-10-12T01:58:01.126Z,100153.97
2022-10-12T02:00:28.058Z,100162.88
2022-10-12T02:02:54.504Z,100168.25
2022-10-12T02:05:24.517Z,100162.88
2022-10-12T02:08:14.387Z,100153.94
2022-10-12T02:10:53.585Z,100154.47
2022-10-12T02:13:24.052Z,100145.25
2022-10-12T02:15:53.255Z,100145.25
2022-10-12T02:18:21.960Z,100141.78
2022-10-12T02:20:53.643Z,100148.78
2022-10-12T02:23:23.749Z,100140.94
2022-10-12T02:25:53.036Z,100144.47
2022-10-12T02:28:23.834Z,100150.91
2022-10-12T02:31:32.322Z,100153.53
2022-10-12T02:34:12.562Z,100154.00
2022-10-12T02:37:00.391Z,100156.66
2022-10-12T02:39:37.969Z,100146.44
2022-10-12T02:42:11.255Z,100146.06
2022-10-12T02:44:39.989Z,100148.09
2022-10-12T02:47:09.791Z,100140.53
2022-10-12T02:49:37.822Z,100134.28
2022-10-12T02:52:06.259Z,100130.50
2022-10-12T02:54:32.881Z,100136.13
2022-10-12T02:56:59.504Z,100134.50
2022-10-12T02:59:26.158Z,100142.56
2022-10-12T03:01:52.677Z,100134.25
2022-10-12T03:04:19.360Z,100138.31
2022-10-12T03:06:45.883Z,100138.03
2022-10-12T03:09:12.651Z,100141.81
2022-10-12T03:11:43.842Z,100139.94
2022-10-12T03:14:12.071Z,100135.63
2022-10-12T03:16:38.616Z,100142.88
2022-10-12T03:19:05.335Z,100132.13
2022-10-12T03:21:31.858Z,100129.44
2022-10-12T03:23:58.487Z,100136.19
2022-10-12T03:26:25.033Z,100138.31
2022-10-12T03:28:51.793Z,100138.81
2022-10-12T03:31:18.358Z,100135.56
2022-10-12T03:33:44.873Z,100135.28
2022-10-12T03:36:11.394Z,100142.50
2022-10-12T03:38:37.940Z,100138.69
2022-10-12T03:41:06.821Z,100141.91
2022-10-12T03:43:34.375Z,100141.59
2022-10-12T03:46:00.982Z,100154.44
2022-10-12T03:48:27.537Z,100148.75
2022-10-12T03:50:54.132Z,100151.97
2022-10-12T03:53:20.870Z,100144.41
2022-10-12T03:55:47.470Z,100151.09
2022-10-12T03:58:14.689Z,100147.06
2022-10-12T04:00:41.229Z,100142.44
2022-10-12T04:03:08.197Z,100143.75
2022-10-12T04:05:34.808Z,100146.94
2022-10-12T04:08:01.979Z,100140.44
2022-10-12T04:10:28.696Z,100147.13
2022-10-12T04:12:55.255Z,100140.13
2022-10-12T04:17:49.272Z,100147.91
2022-10-12T04:20:15.886Z,100147.34
2022-10-12T04:22:42.435Z,100150.78
2022-10-12T04:25:10.683Z,100146.72
2022-10-12T04:27:37.525Z,100138.59
2022-10-12T04:30:04.543Z,100140.75
2022-10-12T04:32:31.084Z,100136.19
2022-10-12T04:34:57.603Z,100139.91
2022-10-12T04:37:26.186Z,100145.28
2022-10-12T04:39:52.762Z,100145.03
2022-10-12T04:42:19.310Z,100139.13
2022-10-12T04:44:45.845Z,100139.34
2022-10-12T04:47:12.394Z,100153.28
2022-10-12T04:49:38.903Z,100155.41
2022-10-12T04:52:05.660Z,100159.91
2022-10-12T04:54:32.919Z,100158.84
2022-10-12T04:56:59.534Z,100155.34
2022-10-12T04:59:26.083Z,100156.47
2022-10-12T05:01:54.287Z,100148.72
2022-10-12T05:04:21.222Z,100154.78
2022-10-12T05:06:47.819Z,100153.22
2022-10-12T05:09:16.909Z,100159.09
2022-10-12T05:11:43.899Z,100144.44
2022-10-12T05:14:10.526Z,100137.59
2022-10-12T05:16:36.953Z,100142.78
2022-10-12T05:19:03.686Z,100138.44
2022-10-12T05:21:30.531Z,100138.44
2022-10-12T05:23:57.118Z,100143.28
2022-10-12T05:26:23.677Z,100136.81
2022-10-12T05:28:50.260Z,100135.72
2022-10-12T05:31:16.954Z,100138.44
2022-10-12T05:33:43.482Z,100135.72
2022-10-12T05:36:10.148Z,100135.22
2022-10-12T05:38:36.651Z,100132.31
2022-10-12T05:41:03.180Z,100139.44
2022-10-12T05:43:29.798Z,100139.69
2022-10-12T05:45:56.378Z,100143.31
2022-10-12T05:48:23.150Z,100147.44
2022-10-12T05:50:52.835Z,100139.19
2022-10-12T05:53:19.446Z,100135.00
2022-10-12T05:55:57.281Z,100141.25
2022-10-12T05:58:25.329Z,100147.56
2022-10-12T06:00:52.069Z,100148.97
2022-10-12T06:03:19.842Z,100144.25
2022-10-12T06:05:48.086Z,100152.72
2022-10-12T06:08:14.620Z,100154.28
2022-10-12T06:10:46.513Z,100150.97
2022-10-12T06:13:13.904Z,100152.78
2022-10-12T06:15:40.416Z,100151.66
2022-10-12T06:18:06.953Z,100153.56
2022-10-12T06:20:33.634Z,100152.50
2022-10-12T06:23:00.149Z,100154.13
2022-10-12T06:25:26.754Z,100161.91
2022-10-12T06:27:53.257Z,100155.75
2022-10-12T06:30:19.926Z,100162.72
2022-10-12T06:32:46.712Z,100165.97
2022-10-12T06:35:13.341Z,100163.84
2022-10-12T06:37:49.943Z,100173.56
2022-10-12T06:40:18.020Z,100165.88
2022-10-12T06:42:44.591Z,100172.69
2022-10-12T06:45:12.089Z,100177.13
2022-10-12T06:47:38.646Z,100184.22
2022-10-12T06:50:05.750Z,100177.81
2022-10-12T06:52:32.330Z,100181.72
2022-10-12T06:54:58.866Z,100188.25
2022-10-12T06:57:25.409Z,100185.91
2022-10-12T06:59:51.984Z,100185.97
2022-10-12T07:02:18.630Z,100188.50
2022-10-12T07:04:45.147Z,100193.44
2022-10-12T07:07:11.734Z,100195.72
2022-10-12T07:09:38.247Z,100196.31
2022-10-12T07:12:04.986Z,100191.56
2022-10-12T07:14:31.546Z,100192.16
2022-10-12T07:16:58.079Z,100192.78
2022-10-12T07:19:24.602Z,100192.56
2022-10-12T07:21:51.116Z,100191.28
2022-10-12T07:24:17.668Z,100189.16
2022-10-12T07:26:44.475Z,100191.59
2022-10-12T07:29:11.287Z,100206.47
2022-10-12T07:31:38.094Z,100207.03
2022-10-12T07:34:04.795Z,100206.00
2022-10-12T07:36:57.581Z,100205.22
2022-10-12T07:39:18.050Z,100206.56
2022-10-12T07:41:44.701Z,100198.53
2022-10-12T07:44:12.112Z,100198.22
2022-10-12T07:46:38.718Z,100199.06
2022-10-12T07:49:05.513Z,100196.91
2022-10-12T07:51:32.064Z,100190.47
2022-10-12T07:54:00.228Z,100199.63
2022-10-12T07:56:27.191Z,100209.63
2022-10-12T07:58:55.866Z,100196.38
2022-10-12T08:01:25.755Z,100201.78
2022-10-12T08:03:56.351Z,100211.22
2022-10-12T08:06:27.850Z,100206.09
2022-10-12T08:08:55.103Z,100199.59
2022-10-12T08:11:22.053Z,100205.81
2022-10-12T08:13:49.130Z,100206.09
2022-10-12T08:16:18.777Z,100196.91
2022-10-12T08:18:46.034Z,100208.53
2022-10-12T08:21:14.747Z,100208.78
2022-10-12T08:23:41.895Z,100202.31
2022-10-12T08:26:08.561Z,100208.22
2022-10-12T08:28:36.096Z,100200.38
2022-10-12T08:31:07.588Z,100190.09
2022-10-12T08:33:34.334Z,100188.19
2022-10-12T08:36:03.314Z,100190.88
2022-10-12T08:38:30.119Z,100191.38
2022-10-12T08:41:00.224Z,100186.25
2022-10-12T08:43:41.830Z,100176.25
2022-10-12T08:46:08.899Z,100184.88
2022-10-12T08:48:41.261Z,100184.31
2022-10-12T08:51:16.955Z,100189.44
2022-10-12T08:53:52.622Z,100194.50
2022-10-12T08:56:20.751Z,100186.63
2022-10-12T08:58:49.291Z,100186.03
2022-10-12T09:01:39.300Z,100183.00
2022-10-12T09:04:23.902Z,100185.66
2022-10-12T09:07:17.214Z,100190.19
2022-10-12T09:10:17.713Z,100193.22
2022-10-12T09:13:03.176Z,100199.97
2022-10-12T09:15:35.309Z,100194.81
2022-10-12T09:18:02.769Z,100202.97
2022-10-12T09:20:31.958Z,100213.72
2022-10-12T09:23:30.457Z,100195.84
2022-10-12T09:26:11.803Z,100206.09
2022-10-12T09:28:44.911Z,100201.41
2022-10-12T09:31:26.829Z,100194.91
2022-10-12T09:34:04.945Z,100192.97
2022-10-12T09:36:37.456Z,100189.19
2022-10-12T09:39:15.888Z,100196.72
2022-10-12T09:41:44.940Z,100200.94
2022-10-12T09:44:40.409Z,100195.22
2022-10-12T09:47:24.245Z,100191.34
2022-10-12T09:49:52.851Z,100196.22
2022-10-12T09:52:28.693Z,100190.50
2022-10-12T09:54:59.152Z,100189.06
2022-10-12T09:57:31.662Z,100178.41
2022-10-12T09:59:58.393Z,100169.97
2022-10-12T10:02:26.748Z,100169.38
2022-10-12T10:04:54.547Z,100179.56
2022-10-12T10:07:27.896Z,100170.81
2022-10-12T10:10:14.267Z,100174.78
2022-10-12T10:12:44.188Z,100169.78
2022-10-12T10:15:27.580Z,100168.03
2022-10-12T10:18:00.370Z,100167.56
2022-10-12T10:20:38.842Z,100176.88
2022-10-12T10:23:05.751Z,100173.78
2022-10-12T10:25:34.356Z,100180.03
2022-10-12T10:28:21.328Z,100191.69
2022-10-12T10:31:12.949Z,100190.53
2022-10-12T10:33:40.220Z,100189.13
2022-10-12T10:36:16.089Z,100188.94
2022-10-12T10:38:56.024Z,100183.91
2022-10-12T10:41:31.974Z,100190.25
2022-10-12T10:43:58.680Z,100189.59
2022-10-12T10:46:28.167Z,100180.47
2022-10-12T10:49:02.401Z,100174.66
2022-10-12T10:51:59.505Z,100172.34
2022-10-12T10:54:28.946Z,100169.16
2022-10-12T10:57:20.618Z,100178.56
2022-10-12T11:00:19.746Z,100164.06
2022-10-12T11:02:56.298Z,100168.31
2022-10-12T11:05:28.934Z,100172.75
2022-10-12T11:08:01.741Z,100169.34
2022-10-12T11:10:50.287Z,100162.88
2022-10-12T11:13:28.518Z,100161.78
2022-10-12T11:16:02.368Z,100153.88
2022-10-12T11:18:41.643Z,100155.03
2022-10-12T11:21:13.440Z,100157.91
2022-10-12T11:23:50.308Z,100150.66
2022-10-12T11:26:38.118Z,100156.69
2022-10-12T11:29:06.175Z,100146.63
2022-10-12T11:31:44.470Z,100147.78
2022-10-12T11:34:17.081Z,100145.00
2022-10-12T11:37:07.509Z,100141.03
2022-10-12T11:39:42.803Z,100132.22
2022-10-12T11:42:21.703Z,100126.75
2022-10-12T11:44:50.090Z,100124.78
2022-10-12T11:47:16.623Z,100123.47
2022-10-12T11:49:43.101Z,100118.75
2022-10-12T11:52:11.795Z,100120.06
2022-10-12T11:54:41.443Z,100121.19
2022-10-12T11:57:13.450Z,100125.06
2022-10-12T11:59:43.020Z,100114.44
2022-10-12T12:02:09.588Z,100103.03
2022-10-12T12:04:42.715Z,100101.03
2022-10-12T12:07:45.594Z,100105.50
2022-10-12T12:10:37.195Z,100101.94
2022-10-12T12:13:08.163Z,100098.84
2022-10-12T12:15:34.690Z,100096.59
2022-10-12T12:18:12.084Z,100090.75
2022-10-12T12:20:44.776Z,100088.78
2022-10-12T12:23:24.660Z,100080.81
2022-10-12T12:26:06.548Z,100086.34
2022-10-12T12:28:34.360Z,100088.91
2022-10-12T12:31:24.997Z,100091.16
2022-10-12T12:34:16.444Z,100087.84
2022-10-12T12:36:49.937Z,100077.03
2022-10-12T12:39:32.844Z,100081.94
2022-10-12T12:42:04.692Z,100078.56
2022-10-12T12:44:34.226Z,100076.25
2022-10-12T12:47:00.683Z,100076.25
2022-10-12T12:50:02.372Z,100078.88
2022-10-12T12:52:34.876Z,100079.97
2022-10-12T12:55:31.319Z,100074.91
2022-10-12T12:58:06.679Z,100073.34
2022-10-12T13:00:38.979Z,100076.59
2022-10-12T13:03:20.161Z,100073.56
2022-10-12T13:06:32.887Z,100063.16
2022-10-12T13:09:08.591Z,100051.25
2022-10-12T13:11:35.192Z,100048.84
2022-10-12T13:14:19.729Z,100050.59
2022-10-12T13:19:57.969Z,100058.31
2022-10-12T13:22:35.573Z,100053.34
2022-10-12T13:25:07.090Z,100046.34
2022-10-12T13:27:43.239Z,100037.31
2022-10-12T13:30:12.989Z,100036.69
2022-10-12T13:32:56.049Z,100034.16
2022-10-12T13:35:38.153Z,100022.38
2022-10-12T13:38:13.840Z,100020.88
2022-10-12T13:40:55.688Z,100019.72
2022-10-12T13:43:42.563Z,100018.28
2022-10-12T13:46:13.046Z,100010.56
2022-10-12T13:48:58.653Z,100006.22
2022-10-12T13:51:29.624Z,100002.50
2022-10-12T13:53:57.538Z,100004.91
2022-10-12T13:56:28.130Z,100002.19
2022-10-12T13:59:04.224Z,100009.00
2022-10-12T14:01:35.482Z,99996.31
2022-10-12T14:04:04.824Z,99993.31
2022-10-12T14:06:37.944Z,99992.00
2022-10-12T14:09:25.781Z,99985.59
2022-10-12T14:11:54.504Z,99979.69
2022-10-12T14:14:43.379Z,99977.44
2022-10-12T14:17:20.440Z,99983.50
2022-10-12T14:19:48.159Z,99978.47
2022-10-12T14:22:31.413Z,99980.56
2022-10-12T14:25:16.216Z,99983.19
2022-10-12T14:27:42.953Z,99982.50
2022-10-12T14:30:18.774Z,99980.81
2022-10-12T14:32:46.755Z,99968.91
2022-10-12T14:35:23.405Z,99968.75
2022-10-12T14:37:52.152Z,99968.16
2022-10-12T14:40:39.275Z,99967.69
2022-10-12T14:43:15.522Z,99964.25
2022-10-12T14:45:42.047Z,99964.56
2022-10-12T14:48:20.722Z,99973.97
2022-10-12T14:50:47.317Z,99967.75
2022-10-12T14:53:15.025Z,99960.31
2022-10-12T14:55:42.648Z,99961.22
2022-10-12T14:58:15.412Z,99957.69
2022-10-12T15:00:42.887Z,99959.19
2022-10-12T15:03:09.525Z,99960.44
2022-10-12T15:05:36.468Z,99963.88
2022-10-12T15:08:09.072Z,99960.19
2022-10-12T15:10:37.069Z,99963.81
2022-10-12T15:13:03.806Z,99966.88
2022-10-12T15:15:43.267Z,99975.63
2022-10-12T15:18:09.955Z,99971.03
2022-10-12T15:20:36.993Z,99973.06
2022-10-12T15:23:04.302Z,99976.81
2022-10-12T15:25:53.002Z,99972.34
2022-10-12T15:28:20.582Z,99967.91
2022-10-12T15:31:15.333Z,99969.00
2022-10-12T15:33:33.941Z,99969.69
2022-10-12T15:36:00.707Z,99969.03
2022-10-12T15:38:27.284Z,99966.81
2022-10-12T15:40:56.136Z,99964.56
2022-10-12T15:43:22.756Z,99960.31
2022-10-12T15:45:49.767Z,99961.63
2022-10-12T15:48:16.478Z,99968.44
2022-10-12T15:50:48.868Z,99969.03
2022-10-12T15:53:18.155Z,99970.91
2022-10-12T15:55:44.700Z,99966.81
2022-10-12T15:58:11.307Z,99964.66
2022-10-12T16:00:37.856Z,99955.19
2022-10-12T16:03:04.824Z,99949.78
2022-10-12T16:05:37.050Z,99949.94
2022-10-12T16:08:05.431Z,99946.09
2022-10-12T16:10:37.239Z,99948.28
2022-10-12T16:13:05.771Z,99960.91
2022-10-12T16:15:34.508Z,99957.03
2022-10-12T16:18:02.604Z,99958.09
2022-10-12T16:20:31.578Z,99951.25
2022-10-12T16:22:59.573Z,99960.47
2022-10-12T16:25:26.529Z,99951.84
2022-10-12T16:27:55.575Z,99946.00
2022-10-12T16:30:22.788Z,99948.78
2022-10-12T16:32:49.595Z,99949.66
2022-10-12T16:35:16.610Z,99954.84
2022-10-12T16:37:43.527Z,99952.19
2022-10-12T16:40:11.217Z,99958.47
2022-10-12T16:42:38.232Z,99966.31
2022-10-12T16:45:05.278Z,99966.34
2022-10-12T16:47:31.910Z,99957.28
2022-10-12T16:49:58.464Z,99957.50
2022-10-12T16:52:25.529Z,99959.31
2022-10-12T16:54:53.450Z,99959.53
2022-10-12T16:57:20.310Z,99960.53
2022-10-12T16:59:48.235Z,99962.63
2022-10-12T17:02:17.359Z,99964.97
2022-10-12T17:04:44.509Z,99966.44
2022-10-12T17:07:11.193Z,99965.72
2022-10-12T17:09:37.810Z,99965.81
2022-10-12T17:12:04.510Z,99958.88
2022-10-12T17:14:31.328Z,99964.09
2022-10-12T17:16:57.894Z,99960.63
2022-10-12T17:19:24.360Z,99962.34
2022-10-12T17:21:52.531Z,99965.13
2022-10-12T17:24:21.492Z,99967.63
2022-10-12T17:26:48.284Z,99978.25
2022-10-12T17:29:17.425Z,99971.31
2022-10-12T17:31:44.763Z,99975.22
2022-10-12T17:34:28.950Z,99973.47
2022-10-12T17:36:57.523Z,99979.78
2022-10-12T17:39:25.623Z,99975.25
2022-10-12T17:41:52.501Z,99987.78
2022-10-12T17:44:19.298Z,99984.03
2022-10-12T17:46:46.635Z,99993.59
2022-10-12T17:49:15.825Z,99995.31
2022-10-12T17:51:43.488Z,99992.69
2022-10-12T17:54:10.478Z,99997.59
2022-10-12T17:56:37.128Z,100003.63
2022-10-12T17:59:04.554Z,100001.50
2022-10-12T18:01:32.994Z,99995.25
2022-10-12T18:04:01.263Z,99992.84
2022-10-12T18:06:29.078Z,99993.63
2022-10-12T18:08:56.683Z,99989.59
2022-10-12T18:11:24.320Z,99980.94
2022-10-12T18:13:53.583Z,99981.53
2022-10-12T18:16:23.559Z,99989.16
2022-10-12T18:18:51.806Z,99983.75
2022-10-12T18:21:20.629Z,99979.94
2022-10-12T18:23:48.224Z,99978.31
2022-10-12T18:26:19.769Z,99977.53
2022-10-12T18:28:47.508Z,99971.88
2022-10-12T18:31:32.240Z,99983.31
2022-10-12T18:33:59.797Z,99990.03
2022-10-12T18:36:27.507Z,99996.53
2022-10-12T18:38:54.457Z,99999.56
2022-10-12T18:41:23.188Z,100010.16
2022-10-12T18:43:55.340Z,100000.72
2022-10-12T18:46:22.036Z,99988.28
2022-10-12T18:48:48.549Z,99990.16
2022-10-12T18:51:19.485Z,99986.13
2022-10-12T18:53:46.553Z,99998.66
2022-10-12T18:56:13.511Z,100004.66
2022-10-12T18:58:40.382Z,100009.81
2022-10-12T19:01:12.976Z,99998.81
2022-10-12T19:03:39.670Z,100000.47
2022-10-12T19:06:15.521Z,100004.84
2022-10-12T19:08:43.585Z,100003.25
2022-10-12T19:11:11.629Z,100001.38
2022-10-12T19:13:39.224Z,100002.28
2022-10-12T19:16:15.798Z,99993.66
2022-10-12T19:18:42.644Z,99998.88
2022-10-12T19:21:15.075Z,100008.66
2022-10-12T19:23:42.218Z,99995.16
2022-10-12T19:26:15.347Z,100002.53
2022-10-12T19:28:42.549Z,100001.47
2022-10-12T19:31:18.682Z,100004.25
2022-10-12T19:33:45.733Z,99995.09
2022-10-12T19:36:15.487Z,99998.38
2022-10-12T19:38:42.333Z,100001.13
2022-10-12T19:41:09.542Z,99997.91
2022-10-12T19:43:36.727Z,100003.34
2022-10-12T19:46:08.423Z,100006.38
2022-10-12T19:48:36.174Z,100005.06
2022-10-12T19:51:08.494Z,100006.72
2022-10-12T19:53:35.049Z,100008.59
2022-10-12T19:56:04.564Z,100015.41
2022-10-12T19:58:31.662Z,100004.84
2022-10-12T20:01:09.293Z,100004.31
2022-10-12T20:03:36.162Z,100007.28
2022-10-12T20:06:07.802Z,100006.78
2022-10-12T20:08:35.269Z,100005.72
2022-10-12T20:11:01.954Z,100006.31
2022-10-12T20:13:28.943Z,100001.47
2022-10-12T20:15:56.343Z,100003.63
2022-10-12T20:18:23.894Z,100004.72
2022-10-12T20:20:51.113Z,100007.72
2022-10-12T20:23:18.169Z,100004.72
2022-10-12T20:25:47.652Z,100006.63
2022-10-12T20:28:14.914Z,99999.91
2022-10-12T20:30:42.254Z,99992.31
2022-10-12T20:33:09.952Z,99993.97
2022-10-12T20:35:37.014Z,99996.38
2022-10-12T20:38:04.475Z,99993.91
2022-10-12T20:40:31.184Z,99988.00
2022-10-12T20:42:57.695Z,99996.38
2022-10-12T20:45:24.218Z,99999.13
2022-10-12T20:47:50.875Z,100000.22
2022-10-12T20:50:17.554Z,100000.47
2022-10-12T20:52:44.178Z,100003.69
2022-10-12T20:55:11.130Z,100010.19
2022-10-12T20:57:37.661Z,99998.63
2022-10-12T21:00:05.751Z,100002.16
2022-10-12T21:02:33.601Z,100000.03
2022-10-12T21:05:00.223Z,99998.94
2022-10-12T21:07:26.762Z,100005.41
2022-10-12T21:09:53.308Z,99990.53
2022-10-12T21:12:20.193Z,99987.25
2022-10-12T21:14:47.036Z,99990.47
2022-10-12T21:17:13.582Z,99991.00
2022-10-12T21:19:40.161Z,99999.91
2022-10-12T21:22:06.671Z,100003.69
2022-10-12T21:24:33.207Z,100009.66
2022-10-12T21:26:59.732Z,100000.25
2022-10-12T21:29:26.586Z,100008.63
2022-10-12T21:31:53.202Z,100019.16
2022-10-12T21:34:20.133Z,100013.47
2022-10-12T21:36:46.652Z,100018.88
2022-10-12T21:39:15.532Z,100017.53
2022-10-12T21:41:42.804Z,100007.75
2022-10-12T21:44:10.592Z,100010.13
2022-10-12T21:46:37.731Z,100010.09
2022-10-12T21:49:07.916Z,100011.97
2022-10-12T21:51:36.596Z,100024.41
2022-10-12T21:54:04.913Z,100008.44
2022-10-12T21:56:34.015Z,100014.38
2022-10-12T21:59:02.041Z,100010.56
2022-10-12T22:01:36.870Z,100005.69
2022-10-12T22:04:06.951Z,100005.66
2022-10-12T22:06:33.986Z,100011.28
2022-10-12T22:09:04.984Z,99996.97
2022-10-12T22:11:32.997Z,100004.53
2022-10-12T22:14:05.272Z,99995.84
2022-10-12T22:16:32.383Z,99996.59
2022-10-12T22:19:04.346Z,99990.63
2022-10-12T22:21:31.852Z,99993.03
2022-10-12T22:24:00.395Z,100000.63
2022-10-12T22:26:27.817Z,99989.81
2022-10-12T22:28:54.479Z,99997.66
2022-10-12T22:31:22.786Z,99990.06
2022-10-12T22:33:49.348Z,99987.59
2022-10-12T22:36:16.027Z,99985.09
2022-10-12T22:38:43.280Z,99980.75
2022-10-12T22:41:12.342Z,99985.88
2022-10-12T22:43:39.175Z,99979.41
2022-10-12T22:46:05.930Z,99970.78
2022-10-12T22:48:32.844Z,99979.47
2022-10-12T22:50:59.481Z,99981.13
2022-10-12T22:53:26.588Z,99964.66
2022-10-12T22:56:09.156Z,99970.91
2022-10-12T22:58:35.798Z,99971.50
2022-10-12T23:01:08.362Z,99977.53
2022-10-12T23:03:35.878Z,99979.81
2022-10-12T23:06:03.654Z,99970.94
2022-10-12T23:08:30.747Z,99966.66
2022-10-12T23:11:09.032Z,99970.22
2022-10-12T23:13:36.765Z,99971.34
2022-10-12T23:16:05.389Z,99972.47
2022-10-12T23:18:34.058Z,99964.66
2022-10-12T23:21:04.897Z,99969.28
2022-10-12T23:23:32.649Z,99979.59
2022-10-12T23:26:05.350Z,99970.97
2022-10-12T23:28:31.982Z,99960.72
2022-10-12T23:30:58.557Z,99958.03
2022-10-12T23:33:25.312Z,99960.47
2022-10-12T23:35:58.840Z,99971.53
2022-10-12T23:38:28.514Z,99975.06
2022-10-12T23:40:55.570Z,99967.78
2022-10-12T23:43:22.463Z,99962.13
2022-10-12T23:45:49.380Z,99958.03
2022-10-12T23:48:16.243Z,99965.53
2022-10-12T23:50:43.254Z,99959.50
2022-10-12T23:53:10.413Z,99963.00
2022-10-12T23:55:37.025Z,99962.72
2022-10-12T23:58:03.612Z,99971.88
